Airfield :
LOGIN :

Register | Disclaimer

   EN    FR    IT 

 










Legend :    VFR   Marginal VFR   IFR   Intensive IFR   Very Intensive IFR
Visi :
Ceiling :
>= 8 km
>= 3000ft
5 to 8 km
1000 to 3000 ft
1500m to 5 km
500 to 1000 ft
800 to 1500m
200 to 500 ft
< 800m
< 200 ft
Symbols :   Thunderstorms  Fog  Heavy snow  Heavy precipitations  Wind > 20 kt
SIGMETs :     Misc.  Thunderstorms  Icing  Turbulence  Mountain Waves  Volcanic Ashes







- Airport Elevation : 1161 ft
- IATA code : RJL


LELO - Logroño-Agoncillo

CURRENT METAR :
  • 150800Z 09003KT 050V120 9999 FEW075 19/15 Q1024

EXPIRED METARs :
  • 150730Z VRB03KT 9999 FEW070TCU 18/16 Q1023
  • 150700Z 07004KT 040V100 9999 -RA FEW060CB SCT075 17/15 Q1023
  • 150630Z VRB02KT 9999 -RA FEW060CB SCT075 16/14 Q1024
  • 150600Z VRB03KT 9999 FEW060CB SCT075 17/14 Q1024
  • 150530Z 09004KT 9999 FEW060CB SCT075 16/13 Q1024
  • 150500Z VRB02KT 9999 FEW060CB SCT070 16/14 Q1023

TAF TAF LELO
Valid from the 15 at 06:00 until the 15 at 15:00 UTC


150500Z 1506/1515 09011KT 9999 FEW045
PROB30
TEMPO 1510/1515 10015G25KT
No reported NOTAMs for that airfield.



MET'MAP, your aeronautical weather chart ! - Copyright ORBIFLY December 2007 - Disclaimer

ORBIFLY MET'MAP TEAM :

Programming & Development : Alexandra Zaïnal
Concept & Development : Baudouin d'Aumeries
Co-Development & Prog : Marc-Olivier Méhu
Technical & hardware support : Manuel Goepfert

Contact : metmap@orbifly.com




SOURCES & CREDITS :

   NOAA